sensor_id;sensor_type;location;lat;lon;timestamp;pressure;altitude;pressure_sealevel;temperature;humidity
69749;BME280;57019;52.354;6.584;2022-10-16T00:00:28;100948.06;;;21.14;58.16
69749;BME280;57019;52.354;6.584;2022-10-16T00:02:53;100941.97;;;21.14;58.14
69749;BME280;57019;52.354;6.584;2022-10-16T00:05:19;100943.78;;;21.13;58.12
69749;BME280;57019;52.354;6.584;2022-10-16T00:07:44;100939.34;;;21.14;57.84
69749;BME280;57019;52.354;6.584;2022-10-16T00:10:09;100934.28;;;21.12;57.78
69749;BME280;57019;52.354;6.584;2022-10-16T00:12:35;100929.22;;;21.11;57.98
69749;BME280;57019;52.354;6.584;2022-10-16T00:15:00;100926.78;;;21.09;57.74
69749;BME280;57019;52.354;6.584;2022-10-16T00:17:25;100933.03;;;21.08;57.80
69749;BME280;57019;52.354;6.584;2022-10-16T00:19:51;100928.78;;;21.07;57.70
69749;BME280;57019;52.354;6.584;2022-10-16T00:22:16;100925.34;;;21.07;57.90
69749;BME280;57019;52.354;6.584;2022-10-16T00:24:41;100931.41;;;21.07;57.74
69749;BME280;57019;52.354;6.584;2022-10-16T00:27:07;100933.22;;;21.07;57.71
69749;BME280;57019;52.354;6.584;2022-10-16T00:29:32;100933.41;;;21.05;57.84
69749;BME280;57019;52.354;6.584;2022-10-16T00:31:57;100931.78;;;21.04;57.90
69749;BME280;57019;52.354;6.584;2022-10-16T00:34:23;100930.97;;;21.04;57.53
69749;BME280;57019;52.354;6.584;2022-10-16T00:36:48;100932.94;;;21.01;57.55
69749;BME280;57019;52.354;6.584;2022-10-16T00:39:14;100939.03;;;21.02;57.67
69749;BME280;57019;52.354;6.584;2022-10-16T00:41:39;100946.28;;;21.00;57.53
69749;BME280;57019;52.354;6.584;2022-10-16T00:44:41;100948.91;;;21.00;57.64
69749;BME280;57019;52.354;6.584;2022-10-16T00:47:14;100938.59;;;20.98;57.46
69749;BME280;57019;52.354;6.584;2022-10-16T00:49:40;100942.38;;;20.96;57.57
69749;BME280;57019;52.354;6.584;2022-10-16T00:52:06;100945.00;;;20.96;57.56
69749;BME280;57019;52.354;6.584;2022-10-16T00:54:32;100945.19;;;20.94;57.49
69749;BME280;57019;52.354;6.584;2022-10-16T00:57:03;100943.56;;;20.93;57.69
69749;BME280;57019;52.354;6.584;2022-10-16T00:59:36;100947.03;;;20.94;57.78
69749;BME280;57019;52.354;6.584;2022-10-16T01:02:03;100950.81;;;20.91;57.55
69749;BME280;57019;52.354;6.584;2022-10-16T01:04:35;100941.31;;;20.90;57.71
69749;BME280;57019;52.354;6.584;2022-10-16T01:07:27;100949.38;;;20.89;57.72
69749;BME280;57019;52.354;6.584;2022-10-16T01:15:17;100938.22;;;20.87;57.38
69749;BME280;57019;52.354;6.584;2022-10-16T01:18:16;100948.72;;;20.87;57.34
69749;BME280;57019;52.354;6.584;2022-10-16T01:21:50;100933.19;;;20.85;57.54
69749;BME280;57019;52.354;6.584;2022-10-16T01:24:38;100931.53;;;20.84;57.53
69749;BME280;57019;52.354;6.584;2022-10-16T01:29:54;100935.38;;;20.81;57.43
69749;BME280;57019;52.354;6.584;2022-10-16T01:35:25;100943.41;;;20.80;57.56
69749;BME280;57019;52.354;6.584;2022-10-16T01:40:27;100945.22;;;20.79;57.20
69749;BME280;57019;52.354;6.584;2022-10-16T01:43:00;100945.22;;;20.79;57.24
69749;BME280;57019;52.354;6.584;2022-10-16T01:45:28;100936.72;;;20.77;57.35
69749;BME280;57019;52.354;6.584;2022-10-16T01:47:55;100942.97;;;20.76;57.35
69749;BME280;57019;52.354;6.584;2022-10-16T01:50:21;100929.84;;;20.76;57.39
69749;BME280;57019;52.354;6.584;2022-10-16T01:52:50;100940.34;;;20.76;57.15
69749;BME280;57019;52.354;6.584;2022-10-16T01:55:24;100931.84;;;20.74;57.41
69749;BME280;57019;52.354;6.584;2022-10-16T01:57:53;100939.69;;;20.74;57.28
69749;BME280;57019;52.354;6.584;2022-10-16T02:00:22;100936.28;;;20.74;57.16
69749;BME280;57019;52.354;6.584;2022-10-16T02:02:49;100929.41;;;20.73;57.07
69749;BME280;57019;52.354;6.584;2022-10-16T02:05:28;100931.22;;;20.72;57.19
69749;BME280;57019;52.354;6.584;2022-10-16T02:07:56;100935.81;;;20.70;57.24
69749;BME280;57019;52.354;6.584;2022-10-16T02:10:22;100928.78;;;20.71;57.19
69749;BME280;57019;52.354;6.584;2022-10-16T02:12:55;100928.97;;;20.69;57.15
69749;BME280;57019;52.354;6.584;2022-10-16T02:15:21;100924.72;;;20.68;57.38
69749;BME280;57019;52.354;6.584;2022-10-16T02:17:46;100932.56;;;20.68;57.14
69749;BME280;57019;52.354;6.584;2022-10-16T02:20:12;100937.81;;;20.68;57.25
69749;BME280;57019;52.354;6.584;2022-10-16T02:22:48;100951.09;;;20.66;57.06
69749;BME280;57019;52.354;6.584;2022-10-16T02:25:22;100950.25;;;20.66;56.98
69749;BME280;57019;52.354;6.584;2022-10-16T02:28:19;100943.41;;;20.65;57.08
69749;BME280;57019;52.354;6.584;2022-10-16T02:30:50;100937.34;;;20.64;56.85
69749;BME280;57019;52.354;6.584;2022-10-16T02:33:21;100942.59;;;20.64;57.18
69749;BME280;57019;52.354;6.584;2022-10-16T02:35:48;100944.59;;;20.62;57.03
69749;BME280;57019;52.354;6.584;2022-10-16T02:38:16;100955.09;;;20.62;57.09
69749;BME280;57019;52.354;6.584;2022-10-16T02:40:42;100947.41;;;20.61;57.15
69749;BME280;57019;52.354;6.584;2022-10-16T02:43:08;100951.63;;;20.62;57.20
69749;BME280;57019;52.354;6.584;2022-10-16T02:45:34;100962.31;;;20.60;56.84
69749;BME280;57019;52.354;6.584;2022-10-16T02:48:00;100961.50;;;20.60;56.85
69749;BME280;57019;52.354;6.584;2022-10-16T02:50:25;100959.88;;;20.59;56.96
69749;BME280;57019;52.354;6.584;2022-10-16T02:52:51;100963.47;;;20.58;56.99
69749;BME280;57019;52.354;6.584;2022-10-16T02:55:16;100952.19;;;20.57;57.06
69749;BME280;57019;52.354;6.584;2022-10-16T02:57:42;100945.31;;;20.56;57.10
69749;BME280;57019;52.354;6.584;2022-10-16T03:00:11;100939.25;;;20.56;56.93
69749;BME280;57019;52.354;6.584;2022-10-16T03:02:37;100935.66;;;20.57;57.09
69749;BME280;57019;52.354;6.584;2022-10-16T03:05:03;100942.06;;;20.54;57.08
69749;BME280;57019;52.354;6.584;2022-10-16T03:07:28;100940.25;;;20.55;57.01
69749;BME280;57019;52.354;6.584;2022-10-16T03:09:53;100942.06;;;20.54;57.02
69749;BME280;57019;52.354;6.584;2022-10-16T03:12:20;100951.72;;;20.54;57.00
69749;BME280;57019;52.354;6.584;2022-10-16T03:14:46;100950.91;;;20.53;57.04
69749;BME280;57019;52.354;6.584;2022-10-16T03:17:11;100955.38;;;20.53;57.03
69749;BME280;57019;52.354;6.584;2022-10-16T03:19:38;100958.97;;;20.51;56.96
69749;BME280;57019;52.354;6.584;2022-10-16T03:22:03;100969.47;;;20.51;56.97
69749;BME280;57019;52.354;6.584;2022-10-16T03:24:29;100967.03;;;20.50;57.04
69749;BME280;57019;52.354;6.584;2022-10-16T03:26:54;100974.06;;;20.49;57.05
69749;BME280;57019;52.354;6.584;2022-10-16T03:29:19;100964.59;;;20.48;57.13
69749;BME280;57019;52.354;6.584;2022-10-16T03:31:45;100969.84;;;20.48;57.00
69749;BME280;57019;52.354;6.584;2022-10-16T03:34:10;100964.59;;;20.48;56.84
69749;BME280;57019;52.354;6.584;2022-10-16T03:36:35;100962.13;;;20.47;56.79
69749;BME280;57019;52.354;6.584;2022-10-16T03:39:01;100961.31;;;20.46;56.98
69749;BME280;57019;52.354;6.584;2022-10-16T03:41:26;100955.28;;;20.46;57.19
69749;BME280;57019;52.354;6.584;2022-10-16T03:43:52;100956.88;;;20.47;57.10
69749;BME280;57019;52.354;6.584;2022-10-16T03:46:17;100957.91;;;20.46;56.92
69749;BME280;57019;52.354;6.584;2022-10-16T03:48:42;100963.31;;;20.44;56.91
69749;BME280;57019;52.354;6.584;2022-10-16T03:51:08;100961.69;;;20.43;57.10
69749;BME280;57019;52.354;6.584;2022-10-16T03:53:33;100969.56;;;20.43;56.84
69749;BME280;57019;52.354;6.584;2022-10-16T03:55:58;100965.28;;;20.42;56.87
69749;BME280;57019;52.354;6.584;2022-10-16T03:58:24;100962.50;;;20.44;56.76
69749;BME280;57019;52.354;6.584;2022-10-16T04:00:49;100965.28;;;20.42;56.79
69749;BME280;57019;52.354;6.584;2022-10-16T04:03:15;100975.78;;;20.42;56.88
69749;BME280;57019;52.354;6.584;2022-10-16T04:05:40;100977.59;;;20.42;56.72
69749;BME280;57019;52.354;6.584;2022-10-16T04:08:06;100977.78;;;20.40;56.71
69749;BME280;57019;52.354;6.584;2022-10-16T04:10:31;100984.03;;;20.39;56.67
69749;BME280;57019;52.354;6.584;2022-10-16T04:12:57;100987.44;;;20.40;56.84
69749;BME280;57019;52.354;6.584;2022-10-16T04:15:23;100996.31;;;20.39;56.83
69749;BME280;57019;52.354;6.584;2022-10-16T04:17:49;101005.19;;;20.38;56.91
69749;BME280;57019;52.354;6.584;2022-10-16T04:20:15;100999.94;;;20.38;56.96
69749;BME280;57019;52.354;6.584;2022-10-16T04:22:40;100989.63;;;20.36;56.99
69749;BME280;57019;52.354;6.584;2022-10-16T04:25:06;100993.88;;;20.37;56.95
69749;BME280;57019;52.354;6.584;2022-10-16T04:27:32;100996.84;;;20.34;57.13
69749;BME280;57019;52.354;6.584;2022-10-16T04:29:58;101001.09;;;20.35;57.06
69749;BME280;57019;52.354;6.584;2022-10-16T04:32:24;101000.28;;;20.34;56.96
69749;BME280;57019;52.354;6.584;2022-10-16T04:34:49;101020.44;;;20.34;56.76
69749;BME280;57019;52.354;6.584;2022-10-16T04:37:15;101012.59;;;20.34;56.68
69749;BME280;57019;52.354;6.584;2022-10-16T04:39:40;101010.16;;;20.32;56.67
69749;BME280;57019;52.354;6.584;2022-10-16T04:42:05;101008.31;;;20.33;56.87
69749;BME280;57019;52.354;6.584;2022-10-16T04:44:31;101011.97;;;20.32;56.88
69749;BME280;57019;52.354;6.584;2022-10-16T04:46:56;101026.88;;;20.31;56.80
69749;BME280;57019;52.354;6.584;2022-10-16T04:49:21;101026.06;;;20.31;56.92
69749;BME280;57019;52.354;6.584;2022-10-16T04:51:47;101041.78;;;20.31;57.00
69749;BME280;57019;52.354;6.584;2022-10-16T04:54:12;101042.78;;;20.30;56.81
69749;BME280;57019;52.354;6.584;2022-10-16T04:56:38;101055.88;;;20.30;56.88
69749;BME280;57019;52.354;6.584;2022-10-16T04:59:14;101059.50;;;20.29;56.68
69749;BME280;57019;52.354;6.584;2022-10-16T05:01:39;101054.25;;;20.29;56.85
69749;BME280;57019;52.354;6.584;2022-10-16T05:04:05;101062.28;;;20.27;56.60
69749;BME280;57019;52.354;6.584;2022-10-16T05:06:30;101057.88;;;20.28;56.76
69749;BME280;57019;52.354;6.584;2022-10-16T05:08:56;101060.50;;;20.28;56.69
69749;BME280;57019;52.354;6.584;2022-10-16T05:11:21;101056.25;;;20.27;56.63
69749;BME280;57019;52.354;6.584;2022-10-16T05:13:47;101060.84;;;20.25;56.86
69749;BME280;57019;52.354;6.584;2022-10-16T05:16:12;101056.44;;;20.25;56.79
69749;BME280;57019;52.354;6.584;2022-10-16T05:18:37;101059.84;;;20.26;56.88
69749;BME280;57019;52.354;6.584;2022-10-16T05:21:03;101064.47;;;20.24;56.82
69749;BME280;57019;52.354;6.584;2022-10-16T05:23:28;101061.84;;;20.24;56.87
69749;BME280;57019;52.354;6.584;2022-10-16T05:25:55;101067.09;;;20.24;56.91
69749;BME280;57019;52.354;6.584;2022-10-16T05:28:24;101075.94;;;20.23;56.68
69749;BME280;57019;52.354;6.584;2022-10-16T05:30:49;101074.31;;;20.22;56.56
69749;BME280;57019;52.354;6.584;2022-10-16T05:33:15;101075.13;;;20.22;56.82
69749;BME280;57019;52.354;6.584;2022-10-16T05:35:40;101081.19;;;20.23;56.71
69749;BME280;57019;52.354;6.584;2022-10-16T05:38:06;101084.44;;;20.25;57.02
69749;BME280;57019;52.354;6.584;2022-10-16T05:40:31;101087.66;;;20.35;56.91
69749;BME280;57019;52.354;6.584;2022-10-16T05:42:56;101082.06;;;20.53;56.28
69749;BME280;57019;52.354;6.584;2022-10-16T05:45:22;101083.84;;;20.76;56.06
69749;BME280;57019;52.354;6.584;2022-10-16T05:47:47;101094.63;;;20.96;55.56
69749;BME280;57019;52.354;6.584;2022-10-16T05:50:13;101091.03;;;21.12;54.96
69749;BME280;57019;52.354;6.584;2022-10-16T05:52:38;101089.75;;;21.23;54.56
69749;BME280;57019;52.354;6.584;2022-10-16T05:55:04;101089.97;;;21.28;54.59
69749;BME280;57019;52.354;6.584;2022-10-16T05:57:29;101102.41;;;21.34;54.37
69749;BME280;57019;52.354;6.584;2022-10-16T05:59:55;101103.38;;;21.33;54.60
69749;BME280;57019;52.354;6.584;2022-10-16T06:02:21;101114.69;;;21.33;54.41
69749;BME280;57019;52.354;6.584;2022-10-16T06:04:46;101108.66;;;21.33;54.48
69749;BME280;57019;52.354;6.584;2022-10-16T06:07:11;101101.75;;;21.32;54.53
69749;BME280;57019;52.354;6.584;2022-10-16T06:09:37;101109.38;;;21.27;54.42
69749;BME280;57019;52.354;6.584;2022-10-16T06:12:02;101116.81;;;21.23;54.64
69749;BME280;57019;52.354;6.584;2022-10-16T06:14:28;101120.59;;;21.21;54.63
69749;BME280;57019;52.354;6.584;2022-10-16T06:16:53;101122.97;;;21.15;54.91
69749;BME280;57019;52.354;6.584;2022-10-16T06:19:18;101134.47;;;21.14;54.78
69749;BME280;57019;52.354;6.584;2022-10-16T06:21:44;101141.09;;;21.10;54.83
69749;BME280;57019;52.354;6.584;2022-10-16T06:24:09;101149.13;;;21.09;54.80
69749;BME280;57019;52.354;6.584;2022-10-16T06:26:35;101143.44;;;21.05;54.98
69749;BME280;57019;52.354;6.584;2022-10-16T06:29:00;101147.41;;;21.01;54.99
69749;BME280;57019;52.354;6.584;2022-10-16T06:31:26;101141.97;;;21.02;55.22
69749;BME280;57019;52.354;6.584;2022-10-16T06:33:55;101155.00;;;20.96;55.19
69749;BME280;57019;52.354;6.584;2022-10-16T06:36:21;101155.38;;;20.93;55.17
69749;BME280;57019;52.354;6.584;2022-10-16T06:38:47;101161.97;;;20.89;55.28
69749;BME280;57019;52.354;6.584;2022-10-16T06:41:20;101175.09;;;20.89;55.25
69749;BME280;57019;52.354;6.584;2022-10-16T06:43:46;101175.78;;;20.82;55.44
69749;BME280;57019;52.354;6.584;2022-10-16T06:46:13;101178.41;;;20.82;55.49
69749;BME280;57019;52.354;6.584;2022-10-16T06:48:39;101182.22;;;20.80;55.68
69749;BME280;57019;52.354;6.584;2022-10-16T06:51:08;101192.44;;;20.75;55.68
69749;BME280;57019;52.354;6.584;2022-10-16T06:53:37;101194.22;;;20.74;55.80
69749;BME280;57019;52.354;6.584;2022-10-16T06:56:14;101195.88;;;20.75;55.71
69749;BME280;57019;52.354;6.584;2022-10-16T06:58:40;101204.47;;;20.69;55.97
69749;BME280;57019;52.354;6.584;2022-10-16T07:01:06;101201.34;;;20.65;56.03
69749;BME280;57019;52.354;6.584;2022-10-16T07:03:32;101209.03;;;20.67;55.79
69749;BME280;57019;52.354;6.584;2022-10-16T07:06:01;101213.94;;;20.70;55.92
69749;BME280;57019;52.354;6.584;2022-10-16T07:08:27;101225.47;;;20.69;55.88
69749;BME280;57019;52.354;6.584;2022-10-16T07:11:00;101230.75;;;20.61;55.95
69749;BME280;57019;52.354;6.584;2022-10-16T07:13:26;101231.53;;;20.61;55.80
69749;BME280;57019;52.354;6.584;2022-10-16T07:15:51;101242.84;;;20.62;55.94
69749;BME280;57019;52.354;6.584;2022-10-16T07:18:17;101232.66;;;20.67;55.92
69749;BME280;57019;52.354;6.584;2022-10-16T07:20:42;101245.09;;;20.73;55.51
69749;BME280;57019;52.354;6.584;2022-10-16T07:23:07;101248.19;;;20.77;55.64
69749;BME280;57019;52.354;6.584;2022-10-16T07:25:33;101249.81;;;20.78;55.67
69749;BME280;57019;52.354;6.584;2022-10-16T07:27:58;101269.34;;;20.75;55.47
69749;BME280;57019;52.354;6.584;2022-10-16T07:30:23;101276.91;;;20.70;55.74
69749;BME280;57019;52.354;6.584;2022-10-16T07:32:49;101262.81;;;20.71;55.64
69749;BME280;57019;52.354;6.584;2022-10-16T07:35:14;101268.44;;;20.68;55.69
69749;BME280;57019;52.354;6.584;2022-10-16T07:37:51;101270.34;;;20.66;55.79
69749;BME280;57019;52.354;6.584;2022-10-16T07:40:17;101280.84;;;20.66;56.10
69749;BME280;57019;52.354;6.584;2022-10-16T07:42:42;101286.09;;;20.66;55.94
69749;BME280;57019;52.354;6.584;2022-10-16T07:45:08;101293.34;;;20.64;56.33
69749;BME280;57019;52.354;6.584;2022-10-16T07:47:33;101298.28;;;20.59;56.28
69749;BME280;57019;52.354;6.584;2022-10-16T07:49:59;101296.31;;;20.69;56.12
69749;BME280;57019;52.354;6.584;2022-10-16T07:52:24;101284.81;;;20.62;56.44
69749;BME280;57019;52.354;6.584;2022-10-16T07:54:49;101300.25;;;20.65;56.44
69749;BME280;57019;52.354;6.584;2022-10-16T07:57:15;101297.63;;;20.65;56.42
69749;BME280;57019;52.354;6.584;2022-10-16T07:59:45;101305.47;;;20.65;56.69
69749;BME280;57019;52.354;6.584;2022-10-16T08:02:11;101307.09;;;20.66;56.67
69749;BME280;57019;52.354;6.584;2022-10-16T08:04:37;101311.06;;;20.62;56.73
69749;BME280;57019;52.354;6.584;2022-10-16T08:07:02;101311.22;;;20.60;56.84
69749;BME280;57019;52.354;6.584;2022-10-16T08:09:27;101317.94;;;20.63;56.84
69749;BME280;57019;52.354;6.584;2022-10-16T08:11:55;101315.84;;;20.58;56.77
69749;BME280;57019;52.354;6.584;2022-10-16T08:14:21;101318.66;;;20.57;57.12
69749;BME280;57019;52.354;6.584;2022-10-16T08:16:46;101329.16;;;20.57;57.10
69749;BME280;57019;52.354;6.584;2022-10-16T08:19:11;101333.19;;;20.59;56.81
69749;BME280;57019;52.354;6.584;2022-10-16T08:21:37;101333.19;;;20.59;57.08
69749;BME280;57019;52.354;6.584;2022-10-16T08:24:02;101335.16;;;20.65;57.02
69749;BME280;57019;52.354;6.584;2022-10-16T08:26:28;101334.97;;;20.67;56.92
69749;BME280;57019;52.354;6.584;2022-10-16T08:28:54;101334.03;;;20.68;56.86
69749;BME280;57019;52.354;6.584;2022-10-16T08:31:20;101334.03;;;20.68;56.76
69749;BME280;57019;52.354;6.584;2022-10-16T08:33:45;101339.41;;;20.66;56.75
69749;BME280;57019;52.354;6.584;2022-10-16T08:36:12;101327.09;;;20.67;57.13
69749;BME280;57019;52.354;6.584;2022-10-16T08:38:38;101332.53;;;20.65;57.26
69749;BME280;57019;52.354;6.584;2022-10-16T08:49:16;101335.66;;;20.69;57.65
69749;BME280;57019;52.354;6.584;2022-10-16T08:51:42;101346.78;;;20.71;57.62
69749;BME280;57019;52.354;6.584;2022-10-16T08:54:26;101363.81;;;20.75;57.46
69749;BME280;57019;52.354;6.584;2022-10-16T08:56:57;101359.56;;;20.74;57.81
69749;BME280;57019;52.354;6.584;2022-10-16T08:59:26;101378.75;;;20.75;58.14
69749;BME280;57019;52.354;6.584;2022-10-16T09:01:52;101373.69;;;20.73;57.93
69749;BME280;57019;52.354;6.584;2022-10-16T09:04:26;101383.53;;;20.71;58.20
69749;BME280;57019;52.354;6.584;2022-10-16T09:06:58;101382.53;;;20.72;58.20
69749;BME280;57019;52.354;6.584;2022-10-16T09:09:33;101388.41;;;20.74;57.98
69749;BME280;57019;52.354;6.584;2022-10-16T09:12:25;101393.03;;;20.72;58.10
69749;BME280;57019;52.354;6.584;2022-10-16T09:20:57;101406.78;;;20.74;58.22
69749;BME280;57019;52.354;6.584;2022-10-16T09:23:30;101408.78;;;20.72;58.18
69749;BME280;57019;52.354;6.584;2022-10-16T09:25:58;101406.63;;;20.76;58.26
69749;BME280;57019;52.354;6.584;2022-10-16T09:28:24;101416.78;;;20.79;58.40
69749;BME280;57019;52.354;6.584;2022-10-16T09:30:50;101417.78;;;20.78;58.33
69749;BME280;57019;52.354;6.584;2022-10-16T09:33:18;101424.84;;;20.77;58.51
69749;BME280;57019;52.354;6.584;2022-10-16T09:35:46;101433.53;;;20.78;58.50
69749;BME280;57019;52.354;6.584;2022-10-16T09:40:48;101431.06;;;20.76;58.18
69749;BME280;57019;52.354;6.584;2022-10-16T09:43:25;101434.31;;;20.78;58.23
69749;BME280;57019;52.354;6.584;2022-10-16T09:46:00;101438.94;;;20.76;58.45
69749;BME280;57019;52.354;6.584;2022-10-16T09:48:31;101448.59;;;20.76;58.66
69749;BME280;57019;52.354;6.584;2022-10-16T09:51:01;101446.16;;;20.74;58.53
69749;BME280;57019;52.354;6.584;2022-10-16T09:53:38;101451.41;;;20.74;58.53
69749;BME280;57019;52.354;6.584;2022-10-16T09:56:05;101441.03;;;20.81;58.31
69749;BME280;57019;52.354;6.584;2022-10-16T09:58:31;101453.72;;;20.77;58.28
69749;BME280;57019;52.354;6.584;2022-10-16T10:00:58;101451.16;;;20.92;58.06
69749;BME280;57019;52.354;6.584;2022-10-16T10:03:35;101460.19;;;20.98;58.01
69749;BME280;57019;52.354;6.584;2022-10-16T10:06:28;101462.81;;;20.98;57.81
69749;BME280;57019;52.354;6.584;2022-10-16T10:11:37;101458.22;;;20.92;58.19
69749;BME280;57019;52.354;6.584;2022-10-16T10:14:16;101452.00;;;20.93;58.16
69749;BME280;57019;52.354;6.584;2022-10-16T10:16:43;101459.50;;;20.96;58.66
69749;BME280;57019;52.354;6.584;2022-10-16T10:19:14;101459.16;;;20.99;58.33
69749;BME280;57019;52.354;6.584;2022-10-16T10:21:40;101462.63;;;20.99;58.34
69749;BME280;57019;52.354;6.584;2022-10-16T10:24:12;101465.25;;;20.99;58.59
69749;BME280;57019;52.354;6.584;2022-10-16T10:27:03;101470.50;;;20.99;58.56
69749;BME280;57019;52.354;6.584;2022-10-16T10:29:38;101469.03;;;20.97;58.79
69749;BME280;57019;52.354;6.584;2022-10-16T10:32:22;101473.34;;;20.90;58.62
69749;BME280;57019;52.354;6.584;2022-10-16T10:35:16;101474.50;;;20.87;58.91
69749;BME280;57019;52.354;6.584;2022-10-16T10:37:51;101467.59;;;20.86;59.02
69749;BME280;57019;52.354;6.584;2022-10-16T10:43:06;101476.63;;;20.83;59.07
69749;BME280;57019;52.354;6.584;2022-10-16T10:45:46;101471.38;;;20.83;59.23
69749;BME280;57019;52.354;6.584;2022-10-16T10:48:20;101478.28;;;20.84;59.25
69749;BME280;57019;52.354;6.584;2022-10-16T10:50:57;101478.28;;;20.84;59.11
69749;BME280;57019;52.354;6.584;2022-10-16T10:53:36;101474.00;;;20.83;59.08
69749;BME280;57019;52.354;6.584;2022-10-16T10:59:06;101474.66;;;20.86;59.05
69749;BME280;57019;52.354;6.584;2022-10-16T11:01:52;101479.25;;;20.83;59.16
69749;BME280;57019;52.354;6.584;2022-10-16T11:06:50;101483.53;;;20.84;59.04
69749;BME280;57019;52.354;6.584;2022-10-16T11:09:38;101486.50;;;20.81;59.21
69749;BME280;57019;52.354;6.584;2022-10-16T11:15:02;101493.38;;;20.82;59.23
69749;BME280;57019;52.354;6.584;2022-10-16T11:17:39;101493.84;;;20.86;59.25
69749;BME280;57019;52.354;6.584;2022-10-16T11:20:26;101490.41;;;20.86;58.96
69749;BME280;57019;52.354;6.584;2022-10-16T11:23:01;101492.38;;;20.83;59.13
69749;BME280;57019;52.354;6.584;2022-10-16T11:25:31;101490.75;;;20.82;58.93
69749;BME280;57019;52.354;6.584;2022-10-16T11:40:48;101506.41;;;20.99;58.86
69749;BME280;57019;52.354;6.584;2022-10-16T11:43:27;101503.63;;;21.00;59.00
69749;BME280;57019;52.354;6.584;2022-10-16T11:45:55;101513.31;;;21.00;58.71
69749;BME280;57019;52.354;6.584;2022-10-16T11:51:20;101528.44;;;20.98;59.16
69749;BME280;57019;52.354;6.584;2022-10-16T11:56:32;101532.66;;;20.99;58.88
69749;BME280;57019;52.354;6.584;2022-10-16T12:01:58;101538.94;;;20.98;58.55
69749;BME280;57019;52.354;6.584;2022-10-16T12:04:42;101538.28;;;20.96;58.58
69749;BME280;57019;52.354;6.584;2022-10-16T12:07:17;101533.72;;;20.90;58.88
69749;BME280;57019;52.354;6.584;2022-10-16T12:09:44;101545.03;;;20.90;58.82
69749;BME280;57019;52.354;6.584;2022-10-16T12:15:01;101546.34;;;20.86;58.65
69749;BME280;57019;52.354;6.584;2022-10-16T12:17:37;101535.31;;;20.91;58.58
69749;BME280;57019;52.354;6.584;2022-10-16T12:22:48;101549.44;;;20.98;58.08
69749;BME280;57019;52.354;6.584;2022-10-16T12:25:21;101560.25;;;20.95;58.06
69749;BME280;57019;52.354;6.584;2022-10-16T12:27:54;101549.44;;;20.98;57.97
69749;BME280;57019;52.354;6.584;2022-10-16T12:30:23;101556.47;;;20.97;58.43
69749;BME280;57019;52.354;6.584;2022-10-16T12:33:06;101561.38;;;21.00;58.46
69749;BME280;57019;52.354;6.584;2022-10-16T12:35:44;101562.22;;;21.01;58.17
69749;BME280;57019;52.354;6.584;2022-10-16T12:38:17;101564.66;;;21.02;58.06
69749;BME280;57019;52.354;6.584;2022-10-16T12:40:44;101560.22;;;21.03;58.04
69749;BME280;57019;52.354;6.584;2022-10-16T12:45:46;101560.84;;;21.13;58.67
69749;BME280;57019;52.354;6.584;2022-10-16T12:48:21;101558.50;;;21.27;59.02
69749;BME280;57019;52.354;6.584;2022-10-16T12:50:47;101568.63;;;21.38;58.72
69749;BME280;57019;52.354;6.584;2022-10-16T12:53:30;101575.16;;;21.42;58.28
69749;BME280;57019;52.354;6.584;2022-10-16T12:56:03;101574.13;;;21.51;58.36
69749;BME280;57019;52.354;6.584;2022-10-16T13:05:24;101573.88;;;21.69;57.15
69749;BME280;57019;52.354;6.584;2022-10-16T13:07:49;101578.59;;;21.74;57.43
69749;BME280;57019;52.354;6.584;2022-10-16T13:10:22;101579.28;;;21.76;57.41
69749;BME280;57019;52.354;6.584;2022-10-16T13:16:30;101589.06;;;21.82;56.98
69749;BME280;57019;52.354;6.584;2022-10-16T13:21:28;101589.19;;;21.89;56.16
69749;BME280;57019;52.354;6.584;2022-10-16T13:26:54;101592.00;;;21.88;57.00
69749;BME280;57019;52.354;6.584;2022-10-16T13:29:22;101589.00;;;21.91;56.29
69749;BME280;57019;52.354;6.584;2022-10-16T13:31:47;101590.31;;;21.95;56.47
69749;BME280;57019;52.354;6.584;2022-10-16T13:34:16;101588.78;;;22.00;56.43
69749;BME280;57019;52.354;6.584;2022-10-16T13:36:45;101606.19;;;22.01;56.13
69749;BME280;57019;52.354;6.584;2022-10-16T13:41:43;101595.56;;;21.95;56.08
69749;BME280;57019;52.354;6.584;2022-10-16T13:44:14;101602.63;;;21.94;55.95
69749;BME280;57019;52.354;6.584;2022-10-16T13:46:40;101599.84;;;21.96;56.12
69749;BME280;57019;52.354;6.584;2022-10-16T13:49:13;101602.16;;;21.91;56.21
69749;BME280;57019;52.354;6.584;2022-10-16T13:51:38;101603.63;;;21.93;56.05
69749;BME280;57019;52.354;6.584;2022-10-16T13:54:04;101603.09;;;21.98;56.22
69749;BME280;57019;52.354;6.584;2022-10-16T13:56:32;101601.75;;;22.02;55.81
69749;BME280;57019;52.354;6.584;2022-10-16T13:59:32;101603.22;;;22.05;55.82
69749;BME280;57019;52.354;6.584;2022-10-16T14:01:59;101616.00;;;22.08;55.96
69749;BME280;57019;52.354;6.584;2022-10-16T14:04:30;101611.28;;;22.03;55.83
69749;BME280;57019;52.354;6.584;2022-10-16T14:06:57;101618.00;;;22.06;55.76
69749;BME280;57019;52.354;6.584;2022-10-16T14:09:27;101612.84;;;22.12;55.61
69749;BME280;57019;52.354;6.584;2022-10-16T14:12:00;101617.41;;;22.18;55.43
69749;BME280;57019;52.354;6.584;2022-10-16T14:14:34;101616.88;;;22.23;55.25
69749;BME280;57019;52.354;6.584;2022-10-16T14:17:01;101615.72;;;22.26;55.47
69749;BME280;57019;52.354;6.584;2022-10-16T14:19:29;101611.09;;;22.28;55.45
69749;BME280;57019;52.354;6.584;2022-10-16T14:21:55;101618.00;;;22.29;55.43
69749;BME280;57019;52.354;6.584;2022-10-16T14:24:32;101618.00;;;22.29;55.09
69749;BME280;57019;52.354;6.584;2022-10-16T14:26:59;101624.59;;;22.25;55.14
69749;BME280;57019;52.354;6.584;2022-10-16T14:29:26;101617.06;;;22.22;55.22
69749;BME280;57019;52.354;6.584;2022-10-16T14:32:05;101632.50;;;22.25;55.53